Gwyme, Virginia
Current Conditions -  °F | °C
As of 12:15 AM on Friday 31 Oct 2014 (Local Time) from KW75 Reporting Station
Scattered Clouds Scattered Clouds  
Wind Chill: 51°   Ceiling: Unl
Heat Index: 51°   Visibility: 10mi
Dew Point: 43°   Wind: 6mph
Humidity: 73%   Direction: 350°N
Pressure: 30.02"   Gusts: NA
Location:  37.4982°N, 76.2873°W
Report Text: KW75 310415Z AUTO 35005KT 10SM SCT060 11/06 A3002 RMK AO1 T01050059
Loading
Personal Weather Stations






























Interactive Weather Map
Tropical Storm Tracking
New forecast layout! Learn more

10-Day Weather Forecast

Advertisements
Track Severe Weather on mobile